Time;durP1;ratioP1;P1;durP2;ratioP2;P2;SDS_P1;SDS_P2;PMS_P1;PMS_P2;Temp;Humidity;BMP_temperature;BMP_pressure;BME280_temperature;BME280_humidity;BME280_pressure;Samples;Min_cycle;Max_cycle;Signal;HPM_P1;HPM_P2
2022/04/10 04:02:25;;;;;;;4.23;1.30;;;0.50;96.30;;;;;;5033904;23;20981;-73
2022/04/10 04:04:51;;;;;;;4.60;1.10;;;0.50;96.30;;;;;;4954336;29;20517;-73
2022/04/10 04:07:17;;;;;;;5.67;1.03;;;0.50;96.30;;;;;;4954147;28;20649;-75
2022/04/10 04:09:42;;;;;;;2.07;1.33;;;0.50;96.30;;;;;;4953167;29;20407;-73
2022/04/10 04:12:08;;;;;;;3.73;1.20;;;0.50;96.30;;;;;;4970145;28;20933;-76
2022/04/10 04:14:35;;;;;;;4.53;1.23;;;0.50;96.30;;;;;;4973108;28;20664;-76
2022/04/10 04:17:01;;;;;;;6.20;1.80;;;0.50;96.30;;;;;;4975105;28;20417;-76
2022/04/10 04:19:26;;;;;;;7.03;1.30;;;0.50;96.30;;;;;;4976416;28;20524;-77
2022/04/10 04:21:52;;;;;;;6.70;1.93;;;0.50;96.30;;;;;;4971320;28;20190;-77
2022/04/10 04:24:17;;;;;;;5.37;1.70;;;0.50;96.30;;;;;;4969982;28;20653;-76
2022/04/10 04:26:43;;;;;;;3.63;1.30;;;0.50;96.30;;;;;;4971554;28;20206;-76
2022/04/10 04:29:08;;;;;;;3.03;1.10;;;0.50;96.30;;;;;;4971990;28;20708;-76
2022/04/10 04:31:34;;;;;;;3.53;1.20;;;0.50;96.30;;;;;;4972884;28;20284;-77
2022/04/10 04:33:59;;;;;;;4.73;1.10;;;0.50;96.30;;;;;;4972948;28;20190;-77
2022/04/10 04:36:25;;;;;;;6.47;1.40;;;0.60;96.30;;;;;;4971296;28;20185;-77
2022/04/10 04:38:52;;;;;;;5.83;1.80;;;0.50;96.30;;;;;;4970709;28;20205;-75
2022/04/10 04:41:18;;;;;;;3.50;1.50;;;0.50;96.30;;;;;;4972770;28;20226;-76
2022/04/10 04:43:44;;;;;;;2.00;1.17;;;0.50;96.30;;;;;;4972645;28;20445;-76
2022/04/10 04:46:09;;;;;;;4.80;1.47;;;0.50;96.30;;;;;;4972841;28;20566;-75
2022/04/10 04:48:34;;;;;;;2.50;1.40;;;0.50;96.30;;;;;;4972139;28;20182;-77
2022/04/10 04:51:02;;;;;;;4.30;2.77;;;0.50;96.30;;;;;;4972656;28;20257;-73
2022/04/10 04:53:28;;;;;;;3.53;1.40;;;0.50;96.30;;;;;;4972943;28;20654;-74
2022/04/10 04:55:53;;;;;;;2.73;1.60;;;0.50;96.30;;;;;;4972829;28;20417;-75
2022/04/10 04:58:19;;;;;;;2.20;1.00;;;0.60;96.30;;;;;;4970803;28;20285;-73
2022/04/10 05:00:45;;;;;;;4.70;1.60;;;0.60;96.30;;;;;;4972643;28;20202;-73
2022/04/10 05:03:11;;;;;;;6.00;1.37;;;0.60;96.30;;;;;;4971616;28;20412;-73
2022/04/10 05:05:36;;;;;;;5.13;1.63;;;0.60;96.30;;;;;;4972812;28;20885;-73
2022/04/10 05:08:03;;;;;;;2.70;1.80;;;0.60;96.30;;;;;;4972119;28;20244;-73
2022/04/10 05:10:29;;;;;;;2.07;1.50;;;0.70;96.30;;;;;;4972629;28;20198;-74
2022/04/10 05:12:54;;;;;;;6.80;2.20;;;0.70;96.30;;;;;;4972669;28;20436;-75
2022/04/10 05:15:20;;;;;;;8.60;2.57;;;0.70;96.30;;;;;;4972484;28;20528;-75
2022/04/10 05:17:45;;;;;;;5.33;1.87;;;0.80;96.30;;;;;;4971996;28;20237;-73
2022/04/10 05:20:11;;;;;;;3.67;1.77;;;0.80;96.30;;;;;;4973307;28;20178;-73
2022/04/10 05:22:37;;;;;;;5.40;1.60;;;0.80;96.30;;;;;;4976030;28;20171;-73
2022/04/10 05:25:02;;;;;;;3.90;1.83;;;0.80;96.30;;;;;;4976185;28;20241;-75
2022/04/10 05:27:28;;;;;;;7.10;3.13;;;0.90;96.30;;;;;;4974228;28;20727;-73
2022/04/10 05:29:53;;;;;;;3.10;1.73;;;0.90;96.30;;;;;;4975971;28;20573;-73
2022/04/10 05:32:19;;;;;;;3.20;1.63;;;0.90;96.30;;;;;;4976006;28;20186;-73
2022/04/10 05:34:45;;;;;;;4.10;1.80;;;0.90;96.30;;;;;;4976065;28;20237;-73
2022/04/10 05:37:10;;;;;;;3.10;1.90;;;1.00;96.30;;;;;;4975884;28;20212;-73
2022/04/10 05:39:38;;;;;;;7.03;1.50;;;0.90;96.30;;;;;;4973854;28;20909;-74
2022/04/10 05:42:04;;;;;;;3.30;1.67;;;1.00;96.30;;;;;;4975901;28;20208;-73
2022/04/10 05:44:29;;;;;;;6.20;1.70;;;1.00;96.30;;;;;;4975806;28;20909;-74
2022/04/10 05:46:55;;;;;;;7.90;2.37;;;1.00;96.30;;;;;;4975849;28;20261;-76
2022/04/10 05:49:20;;;;;;;4.07;1.80;;;1.00;96.30;;;;;;4974968;28;20186;-73
2022/04/10 05:51:47;;;;;;;6.67;1.70;;;1.00;96.30;;;;;;4975694;28;20280;-73
2022/04/10 05:54:14;;;;;;;5.80;2.23;;;1.10;96.30;;;;;;4975799;28;20175;-73
2022/04/10 05:56:39;;;;;;;3.47;1.40;;;1.00;96.30;;;;;;4975513;28;20409;-74
2022/04/10 05:59:05;;;;;;;11.17;2.47;;;1.10;96.30;;;;;;4975014;28;20578;-73
2022/04/10 06:01:30;;;;;;;5.37;1.20;;;1.10;96.30;;;;;;4975113;28;20260;-73
2022/04/10 06:03:56;;;;;;;4.03;1.70;;;1.10;96.30;;;;;;4975323;28;20210;-74
2022/04/10 06:06:21;;;;;;;6.10;1.53;;;1.10;96.30;;;;;;4975642;28;20177;-72
2022/04/10 06:08:47;;;;;;;2.23;1.37;;;1.00;96.30;;;;;;4974914;28;20181;-74
2022/04/10 06:11:12;;;;;;;10.33;2.67;;;1.00;96.30;;;;;;4975303;28;20210;-73
2022/04/10 06:13:38;;;;;;;3.53;1.33;;;1.00;96.30;;;;;;4975200;28;20181;-76
2022/04/10 06:16:04;;;;;;;5.40;1.60;;;1.10;96.30;;;;;;4970608;28;20853;-73
2022/04/10 06:18:29;;;;;;;6.20;1.73;;;1.20;96.30;;;;;;4955436;29;20195;-72
2022/04/10 06:20:55;;;;;;;3.77;1.70;;;1.30;96.30;;;;;;4969120;28;20441;-74
2022/04/10 06:23:23;;;;;;;4.57;1.50;;;1.30;96.30;;;;;;4966419;28;20185;-75
2022/04/10 06:25:49;;;;;;;2.27;1.40;;;1.20;96.30;;;;;;4967799;28;20190;-76
2022/04/10 06:28:14;;;;;;;2.67;1.33;;;1.20;96.30;;;;;;4955277;29;20446;-77
2022/04/10 06:30:40;;;;;;;4.63;2.03;;;1.10;96.30;;;;;;4955369;28;20434;-73
2022/04/10 06:33:05;;;;;;;3.80;1.67;;;1.00;96.30;;;;;;4955703;29;20235;-73
2022/04/10 06:35:31;;;;;;;7.63;2.00;;;1.00;96.30;;;;;;4954645;29;20266;-72
2022/04/10 06:37:56;;;;;;;6.40;2.50;;;1.10;96.30;;;;;;4955677;29;20198;-73
2022/04/10 06:40:22;;;;;;;7.27;1.80;;;1.10;96.30;;;;;;4955811;29;20176;-75
2022/04/10 06:42:47;;;;;;;1.93;1.60;;;1.30;96.30;;;;;;4955815;29;20198;-75
2022/04/10 06:45:13;;;;;;;5.30;2.20;;;1.40;96.30;;;;;;4954497;29;20175;-76
2022/04/10 06:47:38;;;;;;;6.00;2.07;;;1.50;96.30;;;;;;4955563;29;20194;-74
2022/04/10 06:50:04;;;;;;;4.20;2.20;;;1.60;96.30;;;;;;4960491;28;20725;-74
2022/04/10 06:52:30;;;;;;;7.80;2.30;;;1.70;96.30;;;;;;4974917;28;20229;-75
2022/04/10 06:54:55;;;;;;;3.90;1.40;;;1.70;96.30;;;;;;4974926;28;20229;-76
2022/04/10 06:57:21;;;;;;;6.83;1.60;;;1.80;96.30;;;;;;4973546;28;20626;-75
2022/04/10 06:59:46;;;;;;;8.30;1.67;;;2.00;96.30;;;;;;4974268;28;20175;-74
2022/04/10 07:02:12;;;;;;;5.83;1.87;;;2.10;96.30;;;;;;4961468;28;20289;-77
2022/04/10 07:04:37;;;;;;;3.50;1.90;;;2.10;96.30;;;;;;4962909;28;20209;-77
2022/04/10 07:07:03;;;;;;;7.87;1.97;;;2.10;96.30;;;;;;4973213;28;20186;-75
2022/04/10 07:09:28;;;;;;;5.60;1.93;;;2.30;96.30;;;;;;4973980;28;20178;-75
2022/04/10 07:11:54;;;;;;;7.47;2.00;;;2.40;96.30;;;;;;4973155;28;20332;-76
2022/04/10 07:14:19;;;;;;;2.37;1.60;;;2.30;96.30;;;;;;4958475;28;20186;-75
2022/04/10 07:16:45;;;;;;;8.27;2.00;;;2.40;96.30;;;;;;4955208;29;20593;-75
2022/04/10 07:19:10;;;;;;;4.30;1.77;;;2.40;96.30;;;;;;4970632;28;20206;-77
2022/04/10 07:24:20;;;;;;;6.77;1.87;;;2.90;96.30;;;;;;4974658;28;20170;-76
2022/04/10 07:26:45;;;;;;;3.33;1.63;;;2.90;96.30;;;;;;4974355;28;20417;-75
2022/04/10 07:29:12;;;;;;;5.37;2.07;;;3.00;96.30;;;;;;4973608;28;20514;-77
2022/04/10 07:31:39;;;;;;;5.47;2.30;;;3.00;96.30;;;;;;4974134;28;20190;-75
2022/04/10 07:34:05;;;;;;;4.03;2.30;;;3.00;96.30;;;;;;4974124;28;20409;-75
2022/04/10 07:36:32;;;;;;;4.47;2.13;;;2.80;96.30;;;;;;4974191;28;20410;-74
2022/04/10 07:38:58;;;;;;;7.00;2.40;;;2.60;96.30;;;;;;4973477;28;20194;-76
2022/04/10 07:41:24;;;;;;;6.67;1.70;;;2.50;96.30;;;;;;4973946;28;20528;-77
2022/04/10 07:43:49;;;;;;;6.80;1.80;;;2.50;96.30;;;;;;4973447;28;20174;-77
2022/04/10 07:48:59;;;;;;;5.70;1.77;;;2.40;96.30;;;;;;4973508;28;20169;-75
2022/04/10 07:51:25;;;;;;;5.23;1.60;;;2.70;96.30;;;;;;4973902;28;20433;-76
2022/04/10 07:53:53;;;;;;;4.20;1.50;;;2.90;96.30;;;;;;4959296;28;20183;-78
2022/04/10 07:56:19;;;;;;;7.73;1.87;;;3.00;96.30;;;;;;4973753;28;20789;-76
2022/04/10 07:58:44;;;;;;;3.30;1.57;;;3.00;96.30;;;;;;4973558;28;20460;-79
2022/04/10 08:01:10;;;;;;;3.73;1.70;;;3.00;96.30;;;;;;4973470;28;20806;-78
2022/04/10 08:03:35;;;;;;;5.90;1.50;;;3.10;96.30;;;;;;4956176;28;20182;-76
2022/04/10 08:06:01;;;;;;;4.53;1.43;;;3.10;96.30;;;;;;4964021;28;20645;-75
2022/04/10 08:08:26;;;;;;;6.40;2.30;;;3.00;96.30;;;;;;4958504;28;20262;-78
2022/04/10 08:10:52;;;;;;;4.70;1.27;;;2.80;96.30;;;;;;4969327;28;20213;-79
2022/04/10 08:13:18;;;;;;;3.87;1.70;;;2.80;96.30;;;;;;4964836;28;20193;-79
2022/04/10 08:15:43;;;;;;;3.43;1.60;;;2.60;96.30;;;;;;4963125;28;20413;-77
2022/04/10 08:18:09;;;;;;;5.80;2.50;;;2.50;96.30;;;;;;4959949;28;20191;-77
2022/04/10 08:20:36;;;;;;;3.67;1.90;;;2.50;96.30;;;;;;4961070;28;20202;-78
2022/04/10 08:23:01;;;;;;;11.50;2.40;;;2.60;96.30;;;;;;4964054;28;20166;-79
2022/04/10 08:25:27;;;;;;;7.80;1.57;;;2.80;96.30;;;;;;4964171;28;20455;-79
2022/04/10 08:27:53;;;;;;;7.40;2.00;;;2.90;96.30;;;;;;4955599;28;20209;-77
2022/04/10 08:30:19;;;;;;;7.93;1.90;;;2.90;96.30;;;;;;4960482;28;20186;-76
2022/04/10 08:32:44;;;;;;;7.53;2.13;;;3.00;96.30;;;;;;4954149;29;20194;-76
2022/04/10 08:35:11;;;;;;;6.50;1.43;;;3.20;96.30;;;;;;4956086;28;20185;-76
2022/04/10 08:37:37;;;;;;;4.13;1.73;;;3.40;96.30;;;;;;4963102;28;20273;-77
2022/04/10 08:40:04;;;;;;;4.37;2.10;;;3.90;96.30;;;;;;4964035;28;20640;-75
2022/04/10 08:42:29;;;;;;;5.40;1.60;;;4.00;96.30;;;;;;4967373;28;20209;-79
2022/04/10 08:44:55;;;;;;;3.10;1.50;;;4.10;96.30;;;;;;4968082;28;20417;-75
2022/04/10 08:47:21;;;;;;;5.20;1.80;;;4.20;96.30;;;;;;4959618;28;20191;-75
2022/04/10 08:49:48;;;;;;;10.07;2.20;;;4.20;96.30;;;;;;4965499;28;20429;-76
2022/04/10 08:52:16;;;;;;;6.93;1.97;;;4.40;96.30;;;;;;4972900;28;20509;-76
2022/04/10 08:54:43;;;;;;;5.47;1.80;;;4.60;96.30;;;;;;4971112;28;20426;-75
2022/04/10 08:57:08;;;;;;;6.30;1.43;;;4.60;96.30;;;;;;4976666;28;20516;-75
2022/04/10 08:59:34;;;;;;;8.37;2.60;;;4.30;96.30;;;;;;4973802;28;21064;-77
2022/04/10 09:02:00;;;;;;;4.23;1.27;;;4.20;96.30;;;;;;4971830;28;20218;-78
2022/04/10 09:04:25;;;;;;;3.03;1.50;;;3.90;96.30;;;;;;4977069;28;20257;-75
2022/04/10 09:07:03;;;;;;;7.90;1.37;;;3.90;96.30;;;;;;4976806;28;20183;-75
2022/04/10 09:09:30;;;;;;;9.17;1.83;;;3.70;96.30;;;;;;4969862;28;20205;-76
2022/04/10 09:11:56;;;;;;;5.27;1.67;;;3.60;96.30;;;;;;4968257;28;20961;-76
2022/04/10 09:14:24;;;;;;;2.40;1.00;;;3.50;96.30;;;;;;4972273;28;21054;-77
2022/04/10 09:17:13;;;;;;;11.87;1.93;;;3.40;96.30;;;;;;4939881;29;20422;-76
2022/04/10 09:19:42;;;;;;;7.17;1.40;;;3.50;96.30;;;;;;4957250;28;20426;-77
2022/04/10 09:22:35;;;;;;;5.30;2.00;;;3.70;96.30;;;;;;4976334;28;20429;-76
2022/04/10 09:25:17;;;;;;;3.67;1.63;;;3.70;96.30;;;;;;4976567;28;20564;-75
2022/04/10 09:27:44;;;;;;;3.23;1.10;;;3.50;96.30;;;;;;4975787;28;20414;-76
2022/04/10 09:30:12;;;;;;;8.13;1.53;;;3.30;96.30;;;;;;4976827;28;20441;-76
2022/04/10 09:32:51;;;;;;;5.90;1.97;;;3.10;96.30;;;;;;4976581;28;20414;-76
2022/04/10 09:35:21;;;;;;;5.50;2.30;;;3.00;96.30;;;;;;4976348;28;20792;-78
2022/04/10 09:37:51;;;;;;;5.97;1.63;;;3.00;96.30;;;;;;4976352;28;20955;-77
2022/04/10 09:40:31;;;;;;;5.97;1.70;;;3.20;96.30;;;;;;4975371;28;20421;-77
2022/04/10 09:43:05;;;;;;;6.60;1.70;;;3.40;96.30;;;;;;4974858;28;20480;-77
2022/04/10 09:45:38;;;;;;;6.43;1.70;;;3.60;96.30;;;;;;4974971;28;20501;-77
2022/04/10 09:48:27;;;;;;;6.60;1.80;;;3.80;96.30;;;;;;4975910;28;20440;-78
2022/04/10 09:50:56;;;;;;;12.13;1.70;;;3.80;96.30;;;;;;4976022;28;20445;-77
2022/04/10 09:53:22;;;;;;;6.93;1.40;;;3.80;96.30;;;;;;4974907;28;20433;-76
2022/04/10 09:56:00;;;;;;;6.47;1.80;;;3.40;96.30;;;;;;4976064;28;20792;-77
2022/04/10 09:58:26;;;;;;;4.20;1.50;;;3.20;96.30;;;;;;4974557;28;20760;-77
2022/04/10 10:00:54;;;;;;;4.33;1.63;;;3.40;96.30;;;;;;4975821;28;20497;-77
2022/04/10 10:03:24;;;;;;;11.83;2.40;;;3.70;96.30;;;;;;4975987;28;20759;-77
2022/04/10 10:05:51;;;;;;;10.13;1.30;;;4.30;96.30;;;;;;4977211;28;20810;-81
2022/04/10 10:08:17;;;;;;;4.73;1.37;;;5.60;96.30;;;;;;4977138;28;20917;-77
2022/04/10 10:10:44;;;;;;;6.07;1.40;;;6.30;96.30;;;;;;4975758;28;20529;-77
2022/04/10 10:13:12;;;;;;;6.20;1.47;;;6.50;96.30;;;;;;4975763;28;20194;-76
2022/04/10 10:15:39;;;;;;;7.27;1.30;;;5.90;96.30;;;;;;4977805;28;20489;-78
2022/04/10 10:18:08;;;;;;;4.43;1.37;;;5.70;96.30;;;;;;4980237;28;20484;-77
2022/04/10 10:26:03;;;;;;;8.60;1.47;;;4.90;96.30;;;;;;5647895;23;20500;-75
2022/04/10 10:29:06;;;;;;;7.27;1.83;;;3.80;96.30;;;;;;4993697;28;20417;-76
2022/04/10 10:31:40;;;;;;;5.97;1.90;;;3.10;96.30;;;;;;4994816;28;20511;-77
2022/04/10 10:34:09;;;;;;;5.33;2.07;;;3.20;96.30;;;;;;4994822;28;20401;-77
2022/04/10 10:36:35;;;;;;;12.03;2.87;;;4.10;96.30;;;;;;4994799;28;20412;-76
2022/04/10 10:39:04;;;;;;;8.03;2.10;;;6.00;96.30;;;;;;4994724;28;20452;-76
2022/04/10 10:41:32;;;;;;;3.30;1.30;;;7.30;96.30;;;;;;4994572;28;20480;-76
2022/04/10 10:44:14;;;;;;;8.20;1.43;;;8.00;96.30;;;;;;4994597;28;20806;-77
2022/04/10 10:47:04;;;;;;;7.63;1.87;;;8.10;96.30;;;;;;4994621;28;20397;-75
2022/04/10 10:49:45;;;;;;;3.57;1.03;;;7.00;96.30;;;;;;4992942;28;20421;-78
2022/04/10 10:52:11;;;;;;;4.83;1.40;;;5.20;96.30;;;;;;4994438;28;20438;-76
2022/04/10 10:54:51;;;;;;;2.17;1.37;;;3.80;96.30;;;;;;4994405;28;20491;-76
2022/04/10 10:57:42;;;;;;;2.10;1.20;;;2.70;96.30;;;;;;4994381;28;20397;-75
2022/04/10 11:00:20;;;;;;;3.20;1.57;;;2.20;96.30;;;;;;4994331;28;20432;-76
2022/04/10 11:02:51;;;;;;;2.50;1.40;;;2.20;96.30;;;;;;4994272;28;20487;-73
2022/04/10 11:05:32;;;;;;;2.40;1.10;;;3.00;96.30;;;;;;4992961;28;20428;-73
2022/04/10 11:07:58;;;;;;;2.90;1.70;;;4.50;96.30;;;;;;4992724;28;20458;-71
2022/04/10 11:10:28;;;;;;;6.13;1.83;;;5.40;96.30;;;;;;4994132;28;20905;-74
2022/04/10 11:12:58;;;;;;;10.80;2.07;;;6.00;96.30;;;;;;4994762;28;20815;-74
2022/04/10 11:15:28;;;;;;;6.17;1.90;;;6.80;96.30;;;;;;4994236;28;20400;-76
2022/04/10 11:17:54;;;;;;;6.07;1.90;;;6.60;96.30;;;;;;4992261;28;20543;-76
2022/04/10 11:20:27;;;;;;;9.20;2.10;;;6.60;96.30;;;;;;4993924;28;20496;-75
2022/04/10 11:22:53;;;;;;;8.33;2.10;;;7.10;96.30;;;;;;4993830;28;20189;-77
2022/04/10 11:25:28;;;;;;;5.67;1.67;;;6.90;96.30;;;;;;4993646;28;20459;-75
2022/04/10 11:27:55;;;;;;;4.93;1.27;;;6.30;96.30;;;;;;4993769;28;20621;-75
2022/04/10 11:30:39;;;;;;;4.47;1.50;;;5.80;96.30;;;;;;4993794;28;20444;-75
2022/04/10 11:33:06;;;;;;;4.93;1.47;;;5.30;96.30;;;;;;4993763;28;20486;-75
2022/04/10 11:35:34;;;;;;;7.87;2.07;;;4.80;96.30;;;;;;4993668;28;20409;-75
2022/04/10 11:38:02;;;;;;;3.43;1.17;;;4.40;96.30;;;;;;4993397;28;20448;-75
2022/04/10 11:40:30;;;;;;;2.40;1.20;;;3.50;96.30;;;;;;4993581;28;20424;-75
2022/04/10 11:42:57;;;;;;;2.20;1.20;;;2.90;96.30;;;;;;4992266;28;20420;-75
2022/04/10 11:45:25;;;;;;;2.43;1.27;;;3.40;96.30;;;;;;4993564;28;20409;-76
2022/04/10 11:47:51;;;;;;;4.03;1.10;;;5.10;96.30;;;;;;4993251;28;20544;-74
2022/04/10 11:50:21;;;;;;;4.93;1.20;;;6.40;96.30;;;;;;4993289;28;20557;-76
2022/04/10 11:53:03;;;;;;;2.53;1.33;;;7.10;96.30;;;;;;4993372;28;20409;-77
2022/04/10 11:55:33;;;;;;;5.20;1.20;;;7.80;96.30;;;;;;4992110;28;20838;-76
2022/04/10 11:57:59;;;;;;;3.67;1.30;;;8.20;96.30;;;;;;4991680;28;20887;-75
2022/04/10 12:00:26;;;;;;;8.03;1.50;;;8.70;96.30;;;;;;4993090;28;20409;-76
2022/04/10 12:02:53;;;;;;;5.33;1.87;;;9.10;96.30;;;;;;4993129;28;20456;-76
2022/04/10 12:05:30;;;;;;;4.30;1.80;;;9.50;96.30;;;;;;4993206;28;20764;-75
2022/04/10 12:08:03;;;;;;;2.23;1.17;;;9.10;96.30;;;;;;4992947;28;20397;-75
2022/04/10 12:10:29;;;;;;;5.90;1.70;;;7.50;96.30;;;;;;4992941;28;20409;-76
2022/04/10 12:12:56;;;;;;;4.60;1.50;;;6.70;96.30;;;;;;4993090;28;20423;-75
2022/04/10 12:15:22;;;;;;;4.23;1.43;;;6.10;96.30;;;;;;4993849;28;20417;-75
2022/04/10 12:17:49;;;;;;;3.20;1.27;;;5.30;96.30;;;;;;4992874;28;20451;-76
2022/04/10 12:20:15;;;;;;;2.93;1.10;;;4.10;96.30;;;;;;4993112;28;20212;-77
2022/04/10 12:22:41;;;;;;;3.80;1.03;;;3.20;96.30;;;;;;4993041;28;20436;-76
2022/04/10 12:25:09;;;;;;;4.30;1.10;;;3.50;96.30;;;;;;4992859;28;20610;-76
2022/04/10 12:27:35;;;;;;;1.83;1.10;;;4.90;96.30;;;;;;4992754;28;20428;-75
2022/04/10 12:30:08;;;;;;;2.00;0.70;;;6.20;96.30;;;;;;4992264;28;20405;-75
2022/04/10 12:32:33;;;;;;;2.50;1.07;;;7.00;96.30;;;;;;4992782;28;20803;-77
2022/04/10 12:35:13;;;;;;;4.70;1.30;;;6.90;96.30;;;;;;4991724;28;20421;-74
2022/04/10 12:37:46;;;;;;;1.60;0.90;;;6.80;96.30;;;;;;4992529;28;20169;-75
2022/04/10 12:40:13;;;;;;;4.27;1.40;;;6.30;96.30;;;;;;4992711;28;20416;-75
2022/04/10 12:42:41;;;;;;;2.40;1.13;;;5.60;96.30;;;;;;4991528;28;20413;-75
2022/04/10 12:45:08;;;;;;;1.63;1.30;;;4.90;96.30;;;;;;4992653;28;20412;-75
2022/04/10 12:47:42;;;;;;;3.80;1.70;;;3.90;96.30;;;;;;4992450;28;20409;-75
2022/04/10 12:50:09;;;;;;;2.60;1.00;;;3.40;96.30;;;;;;4992668;28;20417;-73
2022/04/10 12:52:37;;;;;;;3.00;1.20;;;3.30;96.30;;;;;;4992546;28;20428;-73
2022/04/10 12:55:17;;;;;;;4.00;1.23;;;3.70;96.30;;;;;;4992688;28;20415;-76
2022/04/10 12:58:01;;;;;;;3.57;1.33;;;5.00;96.30;;;;;;4991145;28;20444;-73
2022/04/10 13:00:29;;;;;;;3.47;1.50;;;6.10;96.30;;;;;;4992536;28;20447;-73
2022/04/10 13:02:56;;;;;;;3.33;1.20;;;6.90;96.30;;;;;;4992550;28;20405;-74
2022/04/10 13:05:21;;;;;;;3.57;1.27;;;7.80;96.30;;;;;;4992542;28;20421;-74
2022/04/10 13:07:59;;;;;;;6.70;1.47;;;7.70;96.30;;;;;;4992320;28;20809;-74
2022/04/10 13:10:25;;;;;;;4.00;2.07;;;7.80;96.30;;;;;;4992495;28;20678;-74
2022/04/10 13:13:05;;;;;;;1.57;0.87;;;7.80;96.30;;;;;;4992506;28;20488;-74
2022/04/10 13:15:33;;;;;;;5.53;1.90;;;8.10;96.30;;;;;;4992483;28;20397;-73
2022/04/10 13:17:59;;;;;;;2.43;1.10;;;8.10;96.30;;;;;;4992445;28;20470;-76
2022/04/10 13:20:26;;;;;;;5.17;1.17;;;7.60;96.30;;;;;;4992066;28;20420;-77
2022/04/10 13:22:52;;;;;;;4.20;0.90;;;6.80;96.30;;;;;;4992520;28;20411;-74
2022/04/10 13:25:18;;;;;;;2.30;1.00;;;5.40;96.30;;;;;;4990999;28;20439;-76
2022/04/10 13:27:43;;;;;;;2.53;1.00;;;3.30;96.30;;;;;;4991187;28;20429;-77
2022/04/10 13:30:10;;;;;;;1.90;0.93;;;2.70;96.30;;;;;;4992461;28;20174;-77
2022/04/10 13:32:35;;;;;;;2.80;0.80;;;2.60;96.30;;;;;;4992119;28;20700;-77
2022/04/10 13:35:01;;;;;;;1.33;1.00;;;2.90;96.30;;;;;;4992201;28;20408;-73
2022/04/10 13:37:26;;;;;;;2.37;1.20;;;4.00;96.30;;;;;;4992073;28;20267;-72
2022/04/10 13:39:52;;;;;;;3.67;1.20;;;5.30;96.30;;;;;;4992266;28;20185;-72
2022/04/10 13:42:18;;;;;;;2.47;1.10;;;6.10;96.30;;;;;;4995723;28;20485;-72
2022/04/10 13:44:45;;;;;;;1.77;0.90;;;6.60;96.30;;;;;;4995725;28;20177;-76
2022/04/10 13:47:11;;;;;;;4.50;1.13;;;7.10;96.30;;;;;;4994517;28;20185;-75
2022/04/10 13:49:36;;;;;;;3.63;1.00;;;7.60;96.30;;;;;;4994150;28;20416;-75
2022/04/10 13:52:02;;;;;;;6.00;0.80;;;7.90;96.30;;;;;;4995821;28;20193;-78
2022/04/10 13:54:29;;;;;;;2.20;0.90;;;7.60;96.30;;;;;;4995583;28;20547;-75
2022/04/10 13:56:55;;;;;;;4.80;1.00;;;7.00;96.30;;;;;;4995510;28;20897;-76
2022/04/10 13:59:20;;;;;;;2.27;1.00;;;6.60;96.30;;;;;;4995121;28;20462;-75
2022/04/10 14:01:46;;;;;;;2.47;1.00;;;6.60;96.30;;;;;;4995652;28;20519;-78
2022/04/10 14:04:12;;;;;;;1.80;0.87;;;6.80;96.30;;;;;;4995430;28;20181;-75
2022/04/10 14:06:37;;;;;;;2.90;1.13;;;6.90;96.30;;;;;;4994178;28;20185;-75
2022/04/10 14:09:03;;;;;;;4.20;1.10;;;7.20;96.30;;;;;;4995102;28;20181;-74
2022/04/10 14:11:31;;;;;;;3.33;0.70;;;7.10;96.30;;;;;;4995223;28;20544;-77
2022/04/10 14:13:57;;;;;;;4.10;0.90;;;7.30;96.30;;;;;;4995278;28;20590;-76
2022/04/10 14:16:23;;;;;;;2.70;1.30;;;7.50;96.30;;;;;;4995107;28;20417;-75
2022/04/10 14:18:50;;;;;;;3.03;1.17;;;8.00;96.30;;;;;;4994996;28;20813;-75
2022/04/10 14:21:17;;;;;;;2.00;0.90;;;7.80;96.30;;;;;;4995133;28;20226;-74
2022/04/10 14:23:43;;;;;;;2.13;1.60;;;8.00;96.30;;;;;;4995769;28;20819;-75
2022/04/10 14:26:08;;;;;;;3.60;1.20;;;7.70;96.30;;;;;;4995360;28;20428;-74
2022/04/10 14:28:35;;;;;;;1.50;0.93;;;7.10;96.30;;;;;;4994840;28;20611;-74
2022/04/10 14:31:01;;;;;;;4.30;1.10;;;7.00;96.30;;;;;;4993695;28;20300;-74
2022/04/10 14:33:27;;;;;;;4.87;1.20;;;6.80;96.30;;;;;;4994968;28;20500;-74
2022/04/10 14:35:52;;;;;;;3.80;1.10;;;6.70;96.30;;;;;;4994871;28;21121;-74
2022/04/10 14:38:18;;;;;;;2.47;1.30;;;6.80;96.30;;;;;;4994572;28;20205;-75
2022/04/10 14:40:43;;;;;;;1.93;1.00;;;7.40;96.30;;;;;;4994655;28;20573;-75
2022/04/10 14:43:10;;;;;;;3.23;0.90;;;7.70;96.30;;;;;;4994805;28;20173;-74
2022/04/10 14:45:36;;;;;;;3.83;1.30;;;8.00;96.30;;;;;;4994557;28;20553;-77
2022/04/10 14:48:02;;;;;;;2.30;0.90;;;7.70;96.30;;;;;;4994326;28;20420;-74
2022/04/10 14:50:27;;;;;;;2.27;0.80;;;8.10;96.30;;;;;;4994709;28;20416;-74
2022/04/10 14:52:53;;;;;;;2.20;1.00;;;8.10;96.30;;;;;;4994177;28;20181;-74
2022/04/10 14:55:18;;;;;;;5.93;1.30;;;8.00;96.30;;;;;;4994382;28;20173;-75
2022/04/10 14:57:44;;;;;;;2.53;0.83;;;7.70;96.30;;;;;;4993963;28;20178;-76
2022/04/10 15:00:10;;;;;;;3.87;1.20;;;7.00;96.30;;;;;;4994345;28;20174;-74
2022/04/10 15:02:36;;;;;;;2.17;0.93;;;6.30;96.30;;;;;;4992872;28;20310;-75
2022/04/10 15:05:05;;;;;;;1.07;0.70;;;4.70;96.30;;;;;;4994454;28;20409;-74
2022/04/10 15:07:31;;;;;;;1.80;0.70;;;4.10;96.30;;;;;;4994260;28;20405;-76
2022/04/10 15:09:56;;;;;;;1.80;0.77;;;3.80;96.30;;;;;;4994337;28;20405;-75
2022/04/10 15:12:21;;;;;;;2.90;1.10;;;3.90;96.30;;;;;;4993930;28;20524;-75
2022/04/10 15:14:49;;;;;;;1.40;0.83;;;4.60;96.30;;;;;;4994079;28;20204;-75
2022/04/10 15:17:14;;;;;;;3.27;1.10;;;5.50;96.30;;;;;;4994188;28;20197;-75
2022/04/10 15:19:40;;;;;;;2.50;0.90;;;5.80;96.30;;;;;;4992602;28;21074;-76
2022/04/10 15:22:05;;;;;;;1.73;0.80;;;5.50;96.30;;;;;;4993004;28;20205;-76
2022/04/10 15:24:31;;;;;;;2.13;0.80;;;5.10;96.30;;;;;;4993875;28;20166;-77
2022/04/10 15:26:57;;;;;;;2.10;0.80;;;4.90;96.30;;;;;;4993685;28;20277;-76
2022/04/10 15:29:22;;;;;;;2.30;1.10;;;4.80;96.30;;;;;;4993630;28;20235;-76
2022/04/10 15:31:48;;;;;;;3.53;1.17;;;4.60;96.30;;;;;;4993745;28;20708;-76
2022/04/10 15:34:13;;;;;;;2.83;1.10;;;4.50;96.30;;;;;;4993771;28;20177;-77
2022/04/10 15:36:41;;;;;;;3.70;1.27;;;5.20;96.30;;;;;;4993986;28;20181;-75
2022/04/10 15:39:07;;;;;;;3.53;1.20;;;5.60;96.30;;;;;;4993433;28;20219;-76
2022/04/10 15:41:42;;;;;;;3.17;0.97;;;6.20;96.30;;;;;;4993598;28;20555;-75
2022/04/10 15:44:08;;;;;;;2.73;1.30;;;6.60;96.30;;;;;;4993696;28;20236;-76
2022/04/10 15:46:33;;;;;;;1.83;1.10;;;6.90;96.30;;;;;;4993706;28;20885;-77
2022/04/10 15:48:59;;;;;;;2.53;1.27;;;6.80;96.30;;;;;;5001249;28;20178;-78
2022/04/10 15:51:24;;;;;;;3.50;1.40;;;6.80;96.30;;;;;;5005990;28;20232;-83
2022/04/10 15:53:50;;;;;;;1.40;1.00;;;6.80;96.30;;;;;;5018859;28;20187;-81
2022/04/10 15:56:15;;;;;;;1.87;0.90;;;6.60;96.30;;;;;;5014239;28;20292;-77
2022/04/10 15:58:41;;;;;;;1.73;1.00;;;6.50;96.30;;;;;;5015030;28;20193;-75
2022/04/10 16:01:07;;;;;;;2.73;1.10;;;6.70;96.30;;;;;;4991661;28;20241;-75
2022/04/10 16:03:32;;;;;;;2.80;1.00;;;6.70;96.30;;;;;;4973794;28;20174;-77
2022/04/10 16:05:57;;;;;;;3.57;1.20;;;6.50;96.30;;;;;;4973412;28;20206;-74
2022/04/10 16:08:23;;;;;;;2.30;1.00;;;6.40;96.30;;;;;;4973778;28;20265;-75
2022/04/10 16:10:49;;;;;;;2.83;1.60;;;6.30;96.30;;;;;;4973764;28;20595;-75
2022/04/10 16:13:14;;;;;;;4.97;1.40;;;6.30;96.30;;;;;;4982202;28;20182;-74
2022/04/10 16:15:41;;;;;;;3.30;0.90;;;6.40;96.30;;;;;;4992891;28;20259;-74
2022/04/10 16:18:07;;;;;;;2.70;1.27;;;6.30;96.30;;;;;;4993271;28;20197;-74
2022/04/10 16:20:33;;;;;;;2.50;1.20;;;6.20;96.30;;;;;;4993329;28;20515;-77
2022/04/10 16:22:59;;;;;;;3.23;1.10;;;6.10;96.30;;;;;;4993160;28;20412;-76
2022/04/10 16:25:25;;;;;;;4.63;1.20;;;5.80;96.30;;;;;;4992998;28;20440;-75
2022/04/10 16:30:34;;;;;;;2.83;1.03;;;5.20;96.30;;;;;;4992869;28;20267;-75
2022/04/10 16:33:04;;;;;;;2.90;1.20;;;5.40;96.30;;;;;;4988671;28;20544;-75
2022/04/10 16:35:30;;;;;;;1.90;0.97;;;5.30;96.30;;;;;;4991749;28;20188;-75
2022/04/10 16:37:58;;;;;;;1.33;0.90;;;5.30;96.30;;;;;;4992887;28;20452;-75
2022/04/10 16:40:26;;;;;;;7.73;1.30;;;5.30;96.30;;;;;;4993934;28;20182;-78
2022/04/10 16:42:51;;;;;;;3.00;0.90;;;5.40;96.30;;;;;;4982344;28;20457;-79
2022/04/10 16:45:18;;;;;;;3.27;1.20;;;5.70;96.30;;;;;;4988077;28;20449;-78
2022/04/10 16:47:44;;;;;;;3.67;1.63;;;5.90;96.30;;;;;;4986826;28;20166;-79
2022/04/10 16:50:12;;;;;;;1.70;1.10;;;6.00;96.30;;;;;;4995037;28;20940;-80
2022/04/10 16:52:39;;;;;;;2.60;1.10;;;5.50;96.30;;;;;;4993088;28;20806;-79
2022/04/10 16:55:06;;;;;;;2.23;1.23;;;5.20;96.30;;;;;;4991677;28;20523;-75
2022/04/10 16:57:34;;;;;;;6.90;2.47;;;5.30;96.30;;;;;;4999300;28;20455;-75
2022/04/10 17:00:01;;;;;;;1.40;1.20;;;5.20;96.30;;;;;;4993691;28;20413;-75
2022/04/10 17:02:27;;;;;;;2.40;1.20;;;5.00;96.30;;;;;;4993930;28;20976;-76
2022/04/10 17:04:54;;;;;;;2.50;1.40;;;5.00;96.30;;;;;;4988410;28;20499;-76
2022/04/10 17:07:21;;;;;;;3.77;1.10;;;4.80;96.30;;;;;;4990381;28;20460;-74
2022/04/10 17:09:46;;;;;;;2.90;1.20;;;4.60;96.30;;;;;;4990779;28;20443;-74
2022/04/10 17:14:47;;;;;;;1.27;0.87;;;4.30;96.30;;;;;;5005626;23;20234;-74
2022/04/10 17:17:13;;;;;;;3.20;0.93;;;4.10;96.30;;;;;;4976844;28;20405;-74